Time;durP1;ratioP1;P1;durP2;ratioP2;P2;SDS_P1;SDS_P2;PMS_P1;PMS_P2;Temp;Humidity;BMP_temperature;BMP_pressure;BME280_temperature;BME280_humidity;BME280_pressure;Samples;Min_cycle;Max_cycle;Signal;HPM_P1;HPM_P2
2023/07/27 00:01:44;;;;;;;2.17;0.50;;;;;;;18.10;100.00;100045.25;7364655;19;20021;-64
2023/07/27 00:04:11;;;;;;;1.98;0.50;;;;;;;18.12;100.00;100048.53;7362592;19;20019;-64
2023/07/27 00:06:38;;;;;;;2.03;0.60;;;;;;;18.14;100.00;100046.44;7363105;19;20023;-65
2023/07/27 00:09:05;;;;;;;1.42;0.70;;;;;;;18.16;100.00;100045.19;7356893;19;20022;-64
2023/07/27 00:11:32;;;;;;;3.60;1.02;;;;;;;18.14;100.00;100049.91;7356244;19;20006;-65
2023/07/27 00:13:59;;;;;;;2.17;1.08;;;;;;;18.13;100.00;100044.81;7363545;19;20035;-65
2023/07/27 00:16:26;;;;;;;3.20;1.10;;;;;;;18.09;100.00;100049.75;7362125;19;20015;-64
2023/07/27 00:19:02;;;;;;;3.70;0.90;;;;;;;18.12;100.00;100043.19;7362239;19;20010;-63
2023/07/27 00:21:29;;;;;;;2.70;0.90;;;;;;;18.11;100.00;100036.22;7363348;19;20018;-64
2023/07/27 00:23:56;;;;;;;2.38;1.00;;;;;;;18.17;100.00;100027.38;7357167;19;21224;-63
2023/07/27 00:26:23;;;;;;;2.05;1.00;;;;;;;18.18;100.00;100018.34;7361119;19;20044;-64
2023/07/27 00:28:55;;;;;;;6.88;3.95;;;;;;;18.18;100.00;100018.34;7357683;19;20495;-64
2023/07/27 00:31:22;;;;;;;3.55;1.20;;;;;;;18.20;100.00;100008.25;7357691;19;20021;-64
2023/07/27 00:33:49;;;;;;;3.70;0.90;;;;;;;18.21;100.00;100024.03;7362578;19;20011;-63
2023/07/27 00:36:16;;;;;;;1.58;0.68;;;;;;;18.20;100.00;100013.59;7361379;19;20685;-63
2023/07/27 00:38:43;;;;;;;5.57;0.70;;;;;;;18.20;100.00;100003.75;7355117;19;20019;-68
2023/07/27 00:41:10;;;;;;;1.05;0.60;;;;;;;18.21;100.00;100004.56;7363304;19;20026;-67
2023/07/27 00:43:37;;;;;;;2.53;1.60;;;;;;;18.21;100.00;100000.06;7361531;19;20022;-65
2023/07/27 00:46:04;;;;;;;2.72;0.60;;;;;;;18.24;100.00;99996.94;7361734;19;20565;-65
2023/07/27 00:48:32;;;;;;;1.88;0.50;;;;;;;18.24;100.00;100001.44;7358274;19;20033;-64
2023/07/27 00:51:00;;;;;;;2.08;0.60;;;;;;;18.20;100.00;99995.75;7361377;19;20518;-64
2023/07/27 00:53:27;;;;;;;1.52;0.50;;;;;;;18.21;100.00;99989.41;7359898;19;20920;-64
2023/07/27 00:55:54;;;;;;;2.72;0.38;;;;;;;18.18;100.00;99989.06;7359980;19;20428;-65
2023/07/27 00:58:22;;;;;;;1.63;0.40;;;;;;;18.17;100.00;99985.56;7358138;19;20050;-66
2023/07/27 01:00:49;;;;;;;1.95;0.40;;;;;;;18.15;100.00;99989.47;7359638;19;20019;-64
2023/07/27 01:03:16;;;;;;;0.82;0.52;;;;;;;18.14;100.00;99980.66;7360068;19;20003;-64
2023/07/27 01:05:43;;;;;;;1.35;0.30;;;;;;;18.14;100.00;99993.16;7360677;19;20010;-64
2023/07/27 01:08:11;;;;;;;1.02;0.30;;;;;;;18.15;100.00;99976.97;7359404;19;20379;-64
2023/07/27 01:10:59;;;;;;;3.63;0.82;;;;;;;18.13;100.00;99972.94;7356512;19;20015;-64
2023/07/27 01:13:57;;;;;;;1.95;0.20;;;;;;;18.16;100.00;99972.47;7358549;19;20057;-65
2023/07/27 01:16:42;;;;;;;0.95;0.35;;;;;;;18.12;100.00;99972.13;7361318;19;20019;-65
2023/07/27 01:19:31;;;;;;;4.00;0.30;;;;;;;18.15;100.00;99974.31;7360689;19;20010;-69
2023/07/27 01:22:26;;;;;;;0.70;0.28;;;;;;;18.12;100.00;99957.97;7361634;19;20018;-70
2023/07/27 01:25:31;;;;;;;2.03;0.20;;;;;;;18.08;100.00;99954.94;7355452;19;20505;-66
2023/07/27 01:28:26;;;;;;;3.72;0.30;;;;;;;18.09;100.00;99955.75;7360478;19;20094;-65
2023/07/27 01:31:06;;;;;;;0.73;0.20;;;;;;;18.10;100.00;99950.22;7357012;19;20029;-65
2023/07/27 01:33:43;;;;;;;0.80;0.20;;;;;;;18.10;100.00;99944.88;7357614;19;20019;-65
2023/07/27 01:36:27;;;;;;;0.73;0.17;;;;;;;18.07;100.00;99942.69;7361061;19;20107;-64
2023/07/27 01:39:03;;;;;;;0.80;0.30;;;;;;;18.07;100.00;99940.00;7354852;19;21195;-63
2023/07/27 01:41:31;;;;;;;0.95;0.20;;;;;;;18.10;100.00;99938.75;7363024;19;20014;-64
2023/07/27 01:44:00;;;;;;;1.92;0.25;;;;;;;18.13;100.00;99940.97;7359395;19;21044;-65
2023/07/27 01:46:30;;;;;;;0.77;0.20;;;;;;;18.15;100.00;99944.22;7357658;19;20010;-64
2023/07/27 01:49:03;;;;;;;1.48;0.20;;;;;;;18.12;100.00;99937.50;7358879;19;20011;-64
2023/07/27 01:51:32;;;;;;;2.38;0.30;;;;;;;18.13;100.00;99935.66;7357572;19;20032;-64
2023/07/27 01:54:00;;;;;;;0.50;0.20;;;;;;;18.12;100.00;99924.19;7356249;19;20102;-64
2023/07/27 01:56:29;;;;;;;1.15;0.32;;;;;;;18.14;100.00;99926.59;7361941;19;20022;-64
2023/07/27 01:58:57;;;;;;;0.50;0.17;;;;;;;18.15;100.00;99925.56;7360283;19;20095;-64
2023/07/27 02:01:25;;;;;;;2.20;0.30;;;;;;;18.17;100.00;99910.19;7359824;19;20081;-64
2023/07/27 02:03:53;;;;;;;0.93;0.20;;;;;;;18.18;100.00;99914.47;7358863;19;20011;-64
2023/07/27 02:06:20;;;;;;;0.85;0.20;;;;;;;18.15;100.00;99909.59;7358560;19;20324;-65
2023/07/27 02:08:47;;;;;;;6.40;0.52;;;;;;;18.15;100.00;99912.25;7355969;19;20050;-65
2023/07/27 02:11:25;;;;;;;2.67;0.70;;;;;;;18.17;100.00;99908.34;7359983;19;20014;-65
2023/07/27 02:14:01;;;;;;;2.55;0.50;;;;;;;18.17;100.00;99904.88;7359482;19;20090;-64
2023/07/27 02:16:34;;;;;;;1.30;0.20;;;;;;;18.16;100.00;99901.38;7358670;19;20086;-64
2023/07/27 02:19:03;;;;;;;2.35;0.40;;;;;;;18.15;100.00;99897.09;7355895;19;20811;-64
2023/07/27 02:21:31;;;;;;;1.23;0.22;;;;;;;18.17;100.00;99895.03;7361228;19;20747;-64
2023/07/27 02:23:59;;;;;;;2.33;0.80;;;;;;;18.21;100.00;99892.72;7352878;19;20010;-65
2023/07/27 02:26:27;;;;;;;0.40;0.20;;;;;;;18.21;100.00;99880.22;7359322;19;20909;-65
2023/07/27 02:28:56;;;;;;;0.88;0.30;;;;;;;18.17;100.00;99884.38;7358243;19;20057;-64
2023/07/27 02:31:24;;;;;;;1.80;0.30;;;;;;;18.17;100.00;99872.91;7355345;19;20023;-64
2023/07/27 02:33:51;;;;;;;1.38;0.30;;;;;;;18.19;100.00;99881.47;7355942;19;20509;-64
2023/07/27 02:36:18;;;;;;;1.52;0.20;;;;;;;18.18;100.00;99869.22;7358414;19;20097;-63
2023/07/27 02:38:45;;;;;;;0.98;0.30;;;;;;;18.19;100.00;99871.63;7351793;19;20018;-65
2023/07/27 02:41:12;;;;;;;0.98;0.25;;;;;;;18.20;100.00;99870.59;7365381;19;20019;-64
2023/07/27 02:43:39;;;;;;;3.70;0.30;;;;;;;18.21;100.00;99872.22;7366233;19;20099;-64
2023/07/27 02:46:08;;;;;;;0.98;0.20;;;;;;;18.22;100.00;99865.06;7363030;19;20037;-64
2023/07/27 02:48:35;;;;;;;1.50;0.20;;;;;;;18.21;100.00;99858.91;7365882;19;20010;-65
2023/07/27 02:51:03;;;;;;;0.82;0.20;;;;;;;18.20;100.00;99851.13;7361491;19;20471;-66
2023/07/27 02:53:30;;;;;;;1.33;0.20;;;;;;;18.22;100.00;99857.06;7364538;19;20022;-64
2023/07/27 02:55:59;;;;;;;0.88;0.20;;;;;;;18.24;100.00;99863.78;7361366;19;20019;-65
2023/07/27 02:58:26;;;;;;;1.25;0.20;;;;;;;18.23;100.00;99864.03;7364416;19;20017;-64
2023/07/27 03:00:56;;;;;;;1.77;0.30;;;;;;;18.21;100.00;99858.91;7367544;19;20019;-64
2023/07/27 03:03:24;;;;;;;0.73;0.20;;;;;;;18.22;100.00;99857.06;7364857;19;20007;-64
2023/07/27 03:06:02;;;;;;;10.52;0.30;;;;;;;18.22;100.00;99852.56;7363889;19;20063;-63
2023/07/27 03:08:31;;;;;;;1.75;0.20;;;;;;;18.23;100.00;99856.03;7361798;19;20697;-64
2023/07/27 03:11:02;;;;;;;0.90;0.30;;;;;;;18.22;100.00;99857.06;7364042;19;20111;-65
2023/07/27 03:13:30;;;;;;;2.53;0.20;;;;;;;18.21;100.00;99850.09;7364658;19;20022;-64
2023/07/27 03:15:59;;;;;;;0.47;0.20;;;;;;;18.22;100.00;99857.06;7363962;19;21053;-63
2023/07/27 03:18:27;;;;;;;1.80;0.30;;;;;;;18.23;100.00;99845.38;7365094;19;20014;-64
2023/07/27 03:20:54;;;;;;;1.45;0.70;;;;;;;18.27;100.00;99846.53;7364083;19;20615;-65
2023/07/27 03:23:22;;;;;;;1.02;0.20;;;;;;;18.29;100.00;99844.44;7362854;19;20018;-64
2023/07/27 03:25:49;;;;;;;1.55;0.25;;;;;;;18.30;100.00;99843.41;7360581;19;20856;-64
2023/07/27 03:28:16;;;;;;;1.15;0.20;;;;;;;18.27;100.00;99849.19;7366225;19;20102;-65
2023/07/27 03:30:43;;;;;;;1.75;0.20;;;;;;;18.27;100.00;99839.38;7359990;19;20037;-65
2023/07/27 03:33:10;;;;;;;1.65;0.25;;;;;;;18.27;100.00;99842.03;7360789;19;20018;-65
2023/07/27 03:35:37;;;;;;;1.67;0.50;;;;;;;18.29;100.00;99836.47;7363725;19;20022;-65
2023/07/27 03:38:04;;;;;;;1.05;0.25;;;;;;;18.34;100.00;99837.41;7362848;19;20022;-65
2023/07/27 03:40:31;;;;;;;2.13;0.30;;;;;;;18.36;100.00;99845.16;7361302;19;20034;-65
2023/07/27 03:42:58;;;;;;;1.55;0.30;;;;;;;18.35;100.00;99838.22;7365317;19;20010;-65
2023/07/27 03:45:25;;;;;;;4.88;0.20;;;;;;;18.34;100.00;99833.91;7359921;19;20026;-65
2023/07/27 03:47:52;;;;;;;2.95;0.20;;;;;;;18.35;100.00;99827.56;7364959;19;20040;-64
2023/07/27 03:50:19;;;;;;;4.53;1.75;;;;;;;18.39;100.00;99831.38;7363121;19;20565;-64
2023/07/27 03:52:46;;;;;;;0.90;0.20;;;;;;;18.39;100.00;99832.19;7363179;19;20510;-65
2023/07/27 03:55:13;;;;;;;1.20;0.38;;;;;;;18.41;100.00;99825.84;7356611;19;20498;-65
2023/07/27 03:57:41;;;;;;;4.22;0.43;;;;;;;18.43;100.00;99829.09;7355190;19;20040;-63
2023/07/27 04:00:11;;;;;;;2.92;0.95;;;;;;;18.44;100.00;99831.50;7360970;19;20534;-65
2023/07/27 04:02:38;;;;;;;1.00;0.40;;;;;;;18.45;100.00;99835.00;7361581;19;20380;-64
2023/07/27 04:05:05;;;;;;;1.00;0.30;;;;;;;18.49;100.00;99833.50;7362998;19;20018;-67
2023/07/27 04:07:32;;;;;;;0.50;0.20;;;;;;;18.48;100.00;99839.88;7362011;19;20027;-64
2023/07/27 04:09:59;;;;;;;2.13;0.28;;;;;;;18.48;100.00;99837.22;7358563;19;20521;-64
2023/07/27 04:12:26;;;;;;;0.70;0.20;;;;;;;18.46;100.00;99834.78;7365791;19;20475;-64
2023/07/27 04:14:53;;;;;;;1.42;0.20;;;;;;;18.47;100.00;99838.25;7361659;19;20029;-64
2023/07/27 04:17:20;;;;;;;1.42;0.63;;;;;;;18.48;100.00;99839.88;7364802;19;20099;-63
2023/07/27 04:19:47;;;;;;;0.95;0.30;;;;;;;18.50;100.00;99837.78;7359726;19;20010;-65
2023/07/27 04:22:14;;;;;;;1.60;0.30;;;;;;;18.54;100.00;99833.66;7361472;19;20861;-64
2023/07/27 04:24:44;;;;;;;1.50;0.20;;;;;;;18.55;100.00;99838.75;7355071;19;20014;-64
2023/07/27 04:27:14;;;;;;;1.88;0.25;;;;;;;18.53;100.00;99840.00;7360402;19;20040;-63
2023/07/27 04:29:40;;;;;;;0.88;0.20;;;;;;;18.51;100.00;99842.88;7362779;19;20673;-64
2023/07/27 04:32:08;;;;;;;2.85;1.10;;;;;;;18.51;100.00;99844.75;7361556;19;20018;-64
2023/07/27 04:34:35;;;;;;;2.00;0.17;;;;;;;18.51;100.00;99836.75;7357219;19;20019;-65
2023/07/27 04:37:03;;;;;;;0.80;0.20;;;;;;;18.54;100.00;99837.13;7363959;19;20049;-64
2023/07/27 04:39:30;;;;;;;1.00;0.20;;;;;;;18.54;100.00;99837.13;7358071;19;20020;-64
2023/07/27 04:41:57;;;;;;;0.70;0.20;;;;;;;18.54;100.00;99836.34;7366200;19;20106;-65
2023/07/27 04:44:24;;;;;;;1.42;0.20;;;;;;;18.53;100.00;99832.81;7358487;19;20043;-63
2023/07/27 04:46:52;;;;;;;1.50;0.20;;;;;;;18.55;100.00;99827.28;7362128;19;20105;-65
2023/07/27 04:49:19;;;;;;;0.75;0.30;;;;;;;18.56;100.00;99840.38;7359036;19;20014;-63
2023/07/27 04:51:46;;;;;;;0.70;0.20;;;;;;;18.56;100.00;99832.38;7360689;19;20006;-64
2023/07/27 04:54:14;;;;;;;1.17;0.10;;;;;;;18.57;100.00;99835.88;7353566;19;21733;-63
2023/07/27 04:56:41;;;;;;;1.00;0.10;;;;;;;18.56;100.00;99832.38;7361558;19;20022;-64
2023/07/27 04:59:08;;;;;;;2.20;0.20;;;;;;;18.55;100.00;99838.75;7358772;19;20099;-65
2023/07/27 05:01:35;;;;;;;1.17;0.40;;;;;;;18.55;100.00;99832.59;7363807;19;20018;-63
2023/07/27 05:04:02;;;;;;;1.77;0.20;;;;;;;18.58;100.00;99842.81;7359662;19;20689;-65
2023/07/27 05:06:29;;;;;;;0.40;0.10;;;;;;;18.57;100.00;99831.34;7361345;19;20015;-64
2023/07/27 05:08:57;;;;;;;1.00;0.10;;;;;;;18.60;100.00;99838.06;7357769;19;20025;-64
2023/07/27 05:11:24;;;;;;;0.50;0.10;;;;;;;18.60;100.00;99832.72;7361210;19;20844;-66
2023/07/27 05:13:51;;;;;;;1.88;0.20;;;;;;;18.61;100.00;99835.19;7357520;19;20026;-64
2023/07/27 05:16:18;;;;;;;0.90;0.20;;;;;;;18.63;100.00;99834.97;7363001;19;20098;-65
2023/07/27 05:18:45;;;;;;;2.15;0.20;;;;;;;18.63;100.00;99832.28;7359703;19;20058;-64
2023/07/27 05:21:12;;;;;;;1.42;0.20;;;;;;;18.64;100.00;99834.72;7362455;19;20097;-64
2023/07/27 05:23:40;;;;;;;0.50;0.20;;;;;;;18.67;100.00;99838.78;7360705;19;20015;-64
2023/07/27 05:26:07;;;;;;;0.40;0.10;;;;;;;18.67;100.00;99831.59;7359530;19;20029;-63
2023/07/27 05:28:34;;;;;;;2.70;0.30;;;;;;;18.65;100.00;99833.66;7360172;19;20098;-65
2023/07/27 05:31:01;;;;;;;1.33;0.20;;;;;;;18.65;100.00;99831.00;7361674;19;20086;-65
2023/07/27 05:33:28;;;;;;;1.20;0.20;;;;;;;18.68;100.00;99832.41;7357245;19;20018;-64
2023/07/27 05:35:55;;;;;;;1.65;0.10;;;;;;;18.70;100.00;99831.13;7357682;19;20474;-64
2023/07/27 05:38:22;;;;;;;1.23;0.20;;;;;;;18.70;100.00;99839.13;7359037;19;20014;-64
2023/07/27 05:40:49;;;;;;;1.92;0.20;;;;;;;18.72;100.00;99844.22;7358535;19;20025;-64
2023/07/27 05:43:16;;;;;;;0.98;0.20;;;;;;;18.70;100.00;99841.78;7360208;19;20010;-63
2023/07/27 05:45:44;;;;;;;1.90;0.20;;;;;;;18.72;100.00;99838.91;7360092;19;20014;-65
2023/07/27 05:48:11;;;;;;;0.35;0.10;;;;;;;18.74;100.00;99845.59;7356883;19;20015;-64
2023/07/27 05:50:38;;;;;;;1.75;0.20;;;;;;;18.74;100.00;99842.16;7354974;19;20050;-64
2023/07/27 05:53:05;;;;;;;2.08;0.20;;;;;;;18.73;100.00;99840.53;7361703;19;20493;-65
2023/07/27 05:55:32;;;;;;;0.88;0.10;;;;;;;18.74;100.00;99844.81;7355834;19;20098;-63
2023/07/27 05:58:00;;;;;;;1.00;0.20;;;;;;;18.75;100.00;99847.25;7357413;19;20014;-64
2023/07/27 06:00:36;;;;;;;1.25;0.20;;;;;;;18.74;100.00;99848.28;7356458;19;20103;-65
2023/07/27 06:03:03;;;;;;;0.35;0.13;;;;;;;18.76;100.00;99846.19;7358652;19;20010;-65
2023/07/27 06:05:30;;;;;;;1.50;0.22;;;;;;;18.77;100.00;99836.34;7356829;19;21354;-66
2023/07/27 06:07:57;;;;;;;1.73;0.20;;;;;;;18.75;100.00;99833.09;7361278;19;20094;-65
2023/07/27 06:10:24;;;;;;;1.75;0.20;;;;;;;18.76;100.00;99843.53;7355944;19;20569;-65
2023/07/27 06:12:51;;;;;;;2.22;0.40;;;;;;;18.77;100.00;99844.34;7359343;19;20014;-65
2023/07/27 06:15:18;;;;;;;2.15;0.30;;;;;;;18.79;100.00;99834.28;7360364;19;20102;-64
2023/07/27 06:17:45;;;;;;;1.75;0.20;;;;;;;18.80;100.00;99846.53;7364585;19;21476;-65
2023/07/27 06:20:12;;;;;;;0.90;0.20;;;;;;;18.83;100.00;99845.28;7365570;19;20060;-64
2023/07/27 06:22:39;;;;;;;1.60;0.20;;;;;;;18.84;100.00;99846.91;7368215;19;20557;-64
2023/07/27 06:25:07;;;;;;;0.93;0.30;;;;;;;18.87;100.00;99838.44;7361203;19;20014;-64
2023/07/27 06:27:33;;;;;;;1.10;0.40;;;;;;;18.88;100.00;99845.41;7365148;19;20036;-64
2023/07/27 06:30:00;;;;;;;3.25;0.28;;;;;;;18.90;100.00;99845.97;7361387;19;20010;-64
2023/07/27 06:32:27;;;;;;;0.98;0.25;;;;;;;18.92;100.00;99839.38;7364597;19;20059;-65
2023/07/27 06:34:55;;;;;;;1.75;0.30;;;;;;;18.93;100.00;99837.53;7362282;19;20022;-64
2023/07/27 06:37:22;;;;;;;3.03;0.30;;;;;;;18.95;100.00;99840.75;7363638;19;20022;-64
2023/07/27 06:39:49;;;;;;;3.05;0.30;;;;;;;18.93;100.00;99846.34;7358964;19;20011;-64
2023/07/27 06:42:16;;;;;;;2.38;0.40;;;;;;;18.96;100.00;99850.38;7368385;19;20022;-64
2023/07/27 06:44:43;;;;;;;1.55;0.30;;;;;;;19.00;100.00;99851.53;7360447;19;20041;-64
2023/07/27 06:47:23;;;;;;;2.55;0.30;;;;;;;19.03;100.00;99853.75;7362901;19;20015;-65
2023/07/27 06:49:50;;;;;;;1.60;0.60;;;;;;;19.05;100.00;99851.66;7361795;19;20010;-65
2023/07/27 06:52:17;;;;;;;3.53;0.30;;;;;;;19.07;100.00;99862.91;7361066;19;20010;-64
2023/07/27 06:54:44;;;;;;;1.33;0.30;;;;;;;19.07;100.00;99850.38;7359906;19;20624;-64
2023/07/27 06:57:16;;;;;;;2.03;0.30;;;;;;;19.07;100.00;99855.72;7364473;19;20106;-65
2023/07/27 06:59:43;;;;;;;1.55;0.30;;;;;;;19.11;100.00;99864.88;7365397;19;20467;-64
2023/07/27 07:02:10;;;;;;;1.65;0.25;;;;;;;19.12;100.00;99858.50;7365655;19;20014;-64
2023/07/27 07:04:37;;;;;;;2.75;0.35;;;;;;;19.13;100.00;99854.00;7360823;19;20039;-65
2023/07/27 07:07:07;;;;;;;2.63;0.30;;;;;;;19.12;100.00;99853.19;7362058;19;20420;-66
2023/07/27 07:09:35;;;;;;;1.45;0.20;;;;;;;19.15;100.00;99846.53;7361299;19;20052;-64
2023/07/27 07:12:04;;;;;;;2.05;0.30;;;;;;;19.17;100.00;99855.97;7365490;19;21408;-65
2023/07/27 07:14:32;;;;;;;2.22;0.30;;;;;;;19.22;100.00;99855.25;7365279;19;20022;-66
2023/07/27 07:17:01;;;;;;;2.78;0.30;;;;;;;19.22;100.00;99863.25;7363332;19;20022;-64
2023/07/27 07:19:28;;;;;;;2.40;0.32;;;;;;;19.24;100.00;99858.50;7364875;19;20030;-64
2023/07/27 07:21:55;;;;;;;2.17;0.30;;;;;;;19.23;100.00;99857.69;7363967;19;20019;-64
2023/07/27 07:24:22;;;;;;;2.28;0.30;;;;;;;19.25;100.00;99859.31;7359078;19;20007;-65
2023/07/27 07:26:49;;;;;;;4.32;0.30;;;;;;;19.27;100.00;99858.03;7361294;19;20010;-64
2023/07/27 07:29:16;;;;;;;0.98;0.20;;;;;;;19.29;100.00;99850.63;7361365;19;20027;-63
2023/07/27 07:31:43;;;;;;;5.20;0.30;;;;;;;19.31;100.00;99853.84;7363133;19;20014;-64
2023/07/27 07:34:10;;;;;;;3.40;0.20;;;;;;;19.33;100.00;99862.44;7363229;19;20011;-63
2023/07/27 07:36:37;;;;;;;2.22;0.20;;;;;;;19.34;100.00;99857.91;7359262;19;20077;-64
2023/07/27 07:39:04;;;;;;;6.30;1.30;;;;;;;19.35;100.00;99852.31;7358030;19;20030;-64
2023/07/27 07:41:31;;;;;;;1.60;0.20;;;;;;;19.38;100.00;99848.41;7362004;19;20351;-64
2023/07/27 07:43:58;;;;;;;1.15;0.30;;;;;;;19.42;100.00;99860.22;7363999;19;21004;-63
2023/07/27 07:46:25;;;;;;;2.72;0.20;;;;;;;19.42;100.00;99861.03;7363815;19;20045;-63
2023/07/27 07:48:52;;;;;;;3.22;0.30;;;;;;;19.44;100.00;99868.81;7359604;19;20032;-63
2023/07/27 07:51:20;;;;;;;2.30;0.30;;;;;;;19.44;100.00;99858.97;7364683;19;20485;-64
2023/07/27 07:53:47;;;;;;;3.15;0.22;;;;;;;19.45;100.00;99859.78;7361413;19;20732;-63
2023/07/27 07:56:15;;;;;;;2.30;0.30;;;;;;;19.50;100.00;99858.06;7365188;19;20020;-64
2023/07/27 07:58:44;;;;;;;1.33;0.30;;;;;;;19.54;100.00;99858.38;7360215;19;20037;-64
2023/07/27 08:01:11;;;;;;;1.95;0.30;;;;;;;19.55;100.00;99852.81;7365935;19;20054;-62
2023/07/27 08:03:38;;;;;;;1.45;0.30;;;;;;;19.58;100.00;99851.53;7363084;19;20161;-63
2023/07/27 08:06:08;;;;;;;2.60;0.20;;;;;;;19.60;100.00;99850.25;7361782;19;20014;-65
2023/07/27 08:08:35;;;;;;;3.13;0.30;;;;;;;19.64;100.00;99845.25;7361499;19;20379;-63
2023/07/27 08:11:03;;;;;;;1.70;0.20;;;;;;;19.67;100.00;99852.78;7361627;19;20017;-64
2023/07/27 08:13:31;;;;;;;4.82;0.40;;;;;;;19.71;100.00;99840.56;7364190;19;20026;-63
2023/07/27 08:15:58;;;;;;;1.35;0.30;;;;;;;19.73;100.00;99845.69;7362314;19;20494;-63
2023/07/27 08:18:27;;;;;;;1.90;0.30;;;;;;;19.79;100.00;99844.72;7360314;19;20015;-64
2023/07/27 08:21:02;;;;;;;1.55;0.20;;;;;;;19.81;100.00;99839.97;7363520;19;20018;-64
2023/07/27 08:23:30;;;;;;;1.88;0.35;;;;;;;19.85;100.00;99836.59;7363316;19;20011;-64
2023/07/27 08:25:58;;;;;;;6.03;0.25;;;;;;;19.89;100.00;99840.41;7360443;19;20361;-65
2023/07/27 08:28:25;;;;;;;1.40;0.25;;;;;;;19.92;100.00;99839.91;7362708;19;20025;-63
2023/07/27 08:30:52;;;;;;;1.35;0.10;;;;;;;19.95;100.00;99850.13;7364068;19;20455;-63
2023/07/27 08:33:19;;;;;;;0.47;0.20;;;;;;;20.01;100.00;99840.38;7362098;19;20022;-63
2023/07/27 08:35:46;;;;;;;3.20;0.20;;;;;;;20.05;100.00;99841.50;7360600;19;20027;-63
2023/07/27 08:38:14;;;;;;;2.85;0.20;;;;;;;20.12;100.00;99849.34;7356783;19;20425;-63
2023/07/27 08:40:41;;;;;;;4.78;0.20;;;;;;;20.18;100.00;99849.22;7361073;19;20191;-64
2023/07/27 08:43:08;;;;;;;0.93;0.10;;;;;;;20.23;100.00;99853.84;7362257;19;20699;-63
2023/07/27 08:45:36;;;;;;;1.35;0.20;;;;;;;20.26;100.00;99853.38;7362336;19;20664;-63
2023/07/27 08:48:05;;;;;;;3.38;0.20;;;;;;;20.29;100.00;99840.34;7361441;19;20475;-64
2023/07/27 08:50:33;;;;;;;1.83;0.20;;;;;;;20.32;100.00;99841.72;7360514;19;20029;-64
2023/07/27 08:53:00;;;;;;;3.53;0.20;;;;;;;20.33;100.00;99849.53;7356004;19;20014;-63
2023/07/27 08:55:27;;;;;;;0.63;0.10;;;;;;;20.32;100.00;99844.41;7356115;19;20388;-63
2023/07/27 08:57:55;;;;;;;0.95;0.20;;;;;;;20.33;100.00;99846.03;7362539;19;20003;-64
2023/07/27 09:00:23;;;;;;;3.28;0.30;;;;;;;20.31;100.00;99851.63;7358850;19;20323;-64
2023/07/27 09:02:50;;;;;;;1.38;0.30;;;;;;;20.33;100.00;99846.84;7359389;19;20606;-64
2023/07/27 09:05:17;;;;;;;2.10;0.20;;;;;;;20.34;100.00;99847.66;7361326;19;20010;-63
2023/07/27 09:07:49;;;;;;;2.33;0.30;;;;;;;20.36;100.00;99848.25;7359489;19;20014;-63
2023/07/27 09:10:17;;;;;;;0.93;0.20;;;;;;;20.33;100.00;99854.88;7354932;19;20010;-65
2023/07/27 09:12:44;;;;;;;2.30;0.20;;;;;;;20.33;100.00;99848.72;7360521;19;20320;-63
2023/07/27 09:15:13;;;;;;;2.75;0.30;;;;;;;20.29;100.00;99851.03;7359912;19;20025;-64
2023/07/27 09:17:40;;;;;;;1.50;0.30;;;;;;;20.31;100.00;99848.97;7361716;19;20017;-64
2023/07/27 09:20:12;;;;;;;1.50;0.30;;;;;;;20.30;100.00;99849.16;7361050;19;21697;-64
2023/07/27 09:22:39;;;;;;;2.47;1.05;;;;;;;20.31;100.00;99848.97;7360096;19;20031;-64
2023/07/27 09:25:07;;;;;;;2.95;0.30;;;;;;;20.31;100.00;99846.28;7354379;19;20047;-64
2023/07/27 09:27:42;;;;;;;3.58;0.40;;;;;;;20.34;100.00;99840.47;7362221;19;20465;-63
2023/07/27 09:30:12;;;;;;;3.53;0.30;;;;;;;20.36;100.00;99845.56;7359571;19;20011;-63
2023/07/27 09:32:39;;;;;;;1.85;0.38;;;;;;;20.36;100.00;99843.72;7360331;19;20007;-64
2023/07/27 09:35:13;;;;;;;2.35;0.40;;;;;;;20.37;100.00;99841.81;7356570;19;20573;-63
2023/07/27 09:37:48;;;;;;;1.35;0.30;;;;;;;20.40;100.00;99852.06;7360270;19;20035;-63
2023/07/27 09:40:18;;;;;;;2.65;0.43;;;;;;;20.43;100.00;99848.88;7355201;19;20598;-63
2023/07/27 09:42:46;;;;;;;1.50;0.40;;;;;;;20.45;100.00;99839.59;7360006;19;20046;-63
2023/07/27 09:45:13;;;;;;;2.20;0.40;;;;;;;20.48;100.00;99833.75;7359299;19;20021;-63
2023/07/27 09:47:41;;;;;;;1.77;0.40;;;;;;;20.55;100.00;99843.47;7358365;19;20030;-63
2023/07/27 09:50:09;;;;;;;1.42;0.50;;;;;;;20.58;100.00;99841.13;7355903;19;20014;-63
2023/07/27 09:52:39;;;;;;;1.85;0.40;;;;;;;20.63;100.00;99843.06;7363152;19;20515;-63
2023/07/27 09:55:07;;;;;;;2.47;0.45;;;;;;;20.70;100.00;99843.72;7354920;19;20006;-63
2023/07/27 09:57:34;;;;;;;1.15;0.50;;;;;;;20.76;100.00;99850.78;7361784;19;20039;-63
2023/07/27 10:00:05;;;;;;;2.60;0.43;;;;;;;20.80;99.97;99849.22;7359510;19;20031;-63
2023/07/27 10:02:33;;;;;;;4.03;0.60;;;;;;;20.85;99.79;99847.44;7358598;19;20621;-62
2023/07/27 10:05:03;;;;;;;5.85;1.08;;;;;;;20.86;99.41;99837.56;7357343;19;20003;-63
2023/07/27 10:07:30;;;;;;;3.00;0.77;;;;;;;20.89;98.17;99839.75;7360669;19;20377;-64
2023/07/27 10:10:34;;;;;;;2.80;0.60;;;;;;;20.87;97.63;99847.22;7352546;19;20025;-63
2023/07/27 10:13:10;;;;;;;1.40;0.50;;;;;;;20.87;97.67;99853.38;7358235;19;20101;-63
2023/07/27 10:15:42;;;;;;;4.00;0.60;;;;;;;20.89;98.18;99853.94;7358763;19;20111;-63
2023/07/27 10:18:14;;;;;;;2.42;0.52;;;;;;;20.91;98.57;99859.84;7359191;19;20045;-64
2023/07/27 10:20:41;;;;;;;3.42;0.85;;;;;;;20.95;98.78;99852.13;7357643;19;20029;-63
2023/07/27 10:23:20;;;;;;;4.80;0.73;;;;;;;20.97;97.89;99846.56;7358035;19;20021;-64
2023/07/27 10:25:54;;;;;;;2.50;0.40;;;;;;;21.00;97.68;99856.75;7356762;19;20741;-65
2023/07/27 10:28:43;;;;;;;2.47;0.40;;;;;;;21.03;97.78;99850.94;7355611;19;20015;-63
2023/07/27 10:31:14;;;;;;;2.72;0.40;;;;;;;21.06;97.73;99861.13;7359193;19;20022;-64
2023/07/27 10:34:17;;;;;;;2.83;0.50;;;;;;;21.08;97.93;99856.34;7356483;19;20020;-63
2023/07/27 10:36:57;;;;;;;1.67;0.50;;;;;;;21.10;97.94;99863.06;7357609;19;20497;-65
2023/07/27 10:39:35;;;;;;;2.15;0.40;;;;;;;21.11;97.47;99855.84;7351263;19;20086;-64
2023/07/27 10:42:04;;;;;;;4.35;0.52;;;;;;;21.09;97.58;99857.94;7357649;19;20089;-62
2023/07/27 10:44:44;;;;;;;3.85;0.63;;;;;;;21.10;97.85;99863.06;7356638;19;20161;-65
2023/07/27 10:47:21;;;;;;;2.33;0.60;;;;;;;21.13;97.47;99867.13;7357615;19;20040;-63
2023/07/27 10:49:50;;;;;;;5.15;0.50;;;;;;;21.16;97.58;99872.81;7356716;19;20014;-63
2023/07/27 10:52:21;;;;;;;2.85;0.55;;;;;;;21.19;97.17;99866.97;7359845;19;20086;-65
2023/07/27 10:54:50;;;;;;;2.20;0.70;;;;;;;21.21;97.43;99862.19;7354746;19;20007;-64
2023/07/27 10:57:20;;;;;;;2.80;0.52;;;;;;;21.24;97.39;99859.00;7355839;19;20015;-63
2023/07/27 10:59:49;;;;;;;2.97;0.55;;;;;;;21.27;97.18;99855.88;7358555;19;20018;-63
2023/07/27 11:02:23;;;;;;;3.53;1.13;;;;;;;21.33;96.80;99862.88;7362236;19;20130;-64
2023/07/27 11:05:02;;;;;;;1.65;0.47;;;;;;;21.38;96.61;99864.84;7355564;19;21140;-63
2023/07/27 11:07:34;;;;;;;1.45;0.40;;;;;;;21.40;95.69;99870.75;7360951;19;20050;-63
2023/07/27 11:10:04;;;;;;;1.65;0.40;;;;;;;21.38;94.88;99859.50;7355690;19;20014;-64
2023/07/27 11:12:31;;;;;;;1.35;0.40;;;;;;;21.38;95.14;99858.69;7367543;19;20018;-63
2023/07/27 11:15:17;;;;;;;2.63;0.32;;;;;;;21.40;95.19;99862.72;7363688;19;20140;-64
2023/07/27 11:17:45;;;;;;;2.65;0.50;;;;;;;21.40;95.01;99851.19;7362468;19;20047;-63
2023/07/27 11:20:12;;;;;;;4.43;0.30;;;;;;;21.39;94.92;99858.41;7361603;19;20022;-63
2023/07/27 11:22:40;;;;;;;2.33;0.40;;;;;;;21.38;94.58;99850.66;7364543;19;20031;-63
2023/07/27 11:25:11;;;;;;;2.03;0.35;;;;;;;21.37;94.94;99852.50;7360700;19;20089;-63
2023/07/27 11:27:49;;;;;;;3.45;0.40;;;;;;;21.38;94.68;99854.13;7361704;19;20023;-63
2023/07/27 11:30:19;;;;;;;3.38;0.32;;;;;;;21.38;95.58;99856.00;7360849;19;20018;-63
2023/07/27 11:33:00;;;;;;;1.48;0.30;;;;;;;21.39;96.01;99855.72;7366786;19;20098;-61
2023/07/27 11:35:27;;;;;;;2.13;0.35;;;;;;;21.40;95.99;99857.34;7360511;19;20018;-63
2023/07/27 11:37:55;;;;;;;1.48;0.40;;;;;;;21.41;96.72;99852.81;7362308;19;20470;-63